Airfield :
LOGIN :

Register | Disclaimer

   EN    FR    IT 

 










Legend :    VFR   Marginal VFR   IFR   Intensive IFR   Very Intensive IFR
Visi :
Ceiling :
>= 8 km
>= 3000ft
5 to 8 km
1000 to 3000 ft
1500m to 5 km
500 to 1000 ft
800 to 1500m
200 to 500 ft
< 800m
< 200 ft
Symbols :   Thunderstorms  Fog  Heavy snow  Heavy precipitations  Wind > 20 kt
SIGMETs :     Misc.  Thunderstorms  Icing  Turbulence  Mountain Waves  Volcanic Ashes






- Airport Elevation : 296 ft
- IATA code : GKE


ETNG - Geilenkirchen

CURRENT METAR :
  • 070750Z 31012G23KT 9999 SCT015 BKN043 17/14 Q1022 NOSIG

EXPIRED METARs :
  • 070650Z 32009KT 7000 SCT008 BKN038 16/15 Q1021 TEMPO -RA
  • 070550Z 28013KT 9999 FEW007 SCT024 BKN036 16/15 Q1020 TEMPO -SHRA

TAF COR TAF ETNG
Valid from the 07 at 06:00 until the 07 at 21:00 UTC


070500Z 0706/0721 29010G15KT BKN020
TEMPO 0706/0708 -RA -SHRA SCT015TCU BKN018
BECMG 0710/0712 33012G23KT BKN030
BECMG 0719/0721 31008KT



MET'MAP, your aeronautical weather chart ! - Copyright ORBIFLY December 2007 - Disclaimer

ORBIFLY MET'MAP TEAM :

Programming & Development : Alexandra Zaïnal
Original concept : Baudouin d'Aumeries
Technical & hardware support : Manuel Goepfert
Assistance : Marc-Olivier Méhu




SOURCES & CREDITS :

   NOAA